Time;durP1;ratioP1;P1;durP2;ratioP2;P2;SDS_P1;SDS_P2;PMS_P1;PMS_P2;Temp;Humidity;BMP_temperature;BMP_pressure;BME280_temperature;BME280_humidity;BME280_pressure;Samples;Min_cycle;Max_cycle;Signal;HPM_P1;HPM_P2
2021/09/20 00:01:55;;;;;;;3.97;3.63;;;;;;;15.04;87.74;98671.75;4934797;28;103328;-68
2021/09/20 00:04:23;;;;;;;7.10;5.20;;;;;;;15.08;87.58;98673.13;4935418;28;103313;-68
2021/09/20 00:06:51;;;;;;;4.70;4.40;;;;;;;15.16;87.03;98675.94;4935562;28;102642;-68
2021/09/20 00:09:19;;;;;;;5.43;5.03;;;;;;;15.07;86.98;98677.59;4935743;28;102710;-66
2021/09/20 00:11:48;;;;;;;4.93;4.53;;;;;;;15.07;87.17;98682.94;4920500;28;103272;-60
2021/09/20 00:14:16;;;;;;;5.10;4.70;;;;;;;15.08;86.98;98673.13;4917172;28;103219;-60
2021/09/20 00:16:45;;;;;;;5.38;4.88;;;;;;;15.14;87.57;98674.41;4907007;28;102628;-60
2021/09/20 00:19:14;;;;;;;5.80;5.30;;;;;;;15.12;87.08;98674.56;4922739;28;103825;-61
2021/09/20 00:21:42;;;;;;;4.03;3.73;;;;;;;15.12;87.35;98679.88;4933858;28;103286;-61
2021/09/20 00:24:10;;;;;;;5.43;4.93;;;;;;;15.02;87.78;98679.00;4931284;28;103200;-60
2021/09/20 00:26:38;;;;;;;5.33;4.83;;;;;;;15.05;87.21;98676.91;4933483;28;102657;-61
2021/09/20 00:29:06;;;;;;;5.07;4.10;;;;;;;15.06;87.11;98677.75;4917603;28;103972;-60
2021/09/20 00:31:35;;;;;;;5.57;5.07;;;;;;;14.80;88.51;98679.25;4929975;28;104106;-60
2021/09/20 00:34:04;;;;;;;7.07;5.30;;;;;;;14.80;87.63;98677.44;4923937;28;103301;-60
2021/09/20 00:36:32;;;;;;;5.47;5.07;;;;;;;14.88;87.02;98682.91;4932488;28;102657;-60
2021/09/20 00:39:00;;;;;;;5.13;4.72;;;;;;;14.84;87.88;98680.69;4931636;28;103103;-67
2021/09/20 00:41:28;;;;;;;6.30;5.70;;;;;;;14.45;90.38;98680.59;4935398;28;103271;-60
2021/09/20 00:43:57;;;;;;;5.93;5.32;;;;;;;14.37;91.05;98680.41;4937971;28;103230;-60
2021/09/20 00:46:25;;;;;;;4.78;4.22;;;;;;;14.59;89.94;98681.19;4937450;28;102738;-60
2021/09/20 00:48:53;;;;;;;5.90;5.40;;;;;;;14.48;90.16;98675.00;4938798;28;102639;-60
2021/09/20 00:51:23;;;;;;;5.57;5.07;;;;;;;14.60;90.34;98677.53;4938150;28;104012;-60
2021/09/20 00:53:51;;;;;;;4.77;4.37;;;;;;;14.80;89.18;98668.63;4930636;28;103208;-60
2021/09/20 00:56:19;;;;;;;3.93;3.63;;;;;;;14.93;87.86;98680.69;4920607;28;102680;-60
2021/09/20 00:58:48;;;;;;;4.43;4.03;;;;;;;15.01;87.13;98677.34;4926882;28;102721;-59
2021/09/20 01:01:17;;;;;;;4.00;3.67;;;;;;;15.07;87.22;98682.13;4933051;28;103064;-61
2021/09/20 01:03:45;;;;;;;4.13;3.73;;;;;;;14.98;87.64;98694.44;4918881;28;104184;-68
2021/09/20 01:06:13;;;;;;;6.07;5.50;;;;;;;14.91;87.88;98687.97;4936170;28;102663;-68
2021/09/20 01:08:43;;;;;;;4.93;4.50;;;;;;;14.94;87.63;98692.16;4924560;28;104117;-68
2021/09/20 01:11:11;;;;;;;5.17;4.77;;;;;;;15.02;87.11;98692.31;4933406;28;103355;-68
2021/09/20 01:13:39;;;;;;;7.80;5.20;;;;;;;15.01;86.83;98698.63;4928876;28;103304;-67
2021/09/20 01:16:08;;;;;;;5.67;5.17;;;;;;;14.64;89.15;98694.91;4914562;28;102739;-68
2021/09/20 01:18:36;;;;;;;6.23;5.63;;;;;;;14.62;89.08;98707.50;4935939;28;102685;-61
2021/09/20 01:21:04;;;;;;;4.87;4.47;;;;;;;14.75;88.79;98710.75;4934847;28;103924;-61
2021/09/20 01:23:34;;;;;;;5.73;5.23;;;;;;;14.69;88.83;98703.31;4920251;28;103791;-61
2021/09/20 01:26:02;;;;;;;6.60;6.00;;;;;;;14.17;92.14;98707.88;4921744;28;102702;-61
2021/09/20 01:28:30;;;;;;;5.70;5.20;;;;;;;14.13;92.89;98705.59;4912758;28;102896;-61
2021/09/20 01:30:59;;;;;;;4.50;4.13;;;;;;;14.14;93.14;98700.19;4889496;28;103316;-61
2021/09/20 01:33:28;;;;;;;7.47;6.47;;;;;;;14.16;92.48;98700.03;4910800;28;103061;-61
2021/09/20 01:35:56;;;;;;;5.53;5.10;;;;;;;14.39;91.36;98697.09;4918387;28;102664;-62
2021/09/20 01:38:24;;;;;;;6.87;6.23;;;;;;;14.10;92.19;98701.41;4891399;28;102746;-61
2021/09/20 01:40:54;;;;;;;6.63;6.03;;;;;;;14.04;92.26;98701.94;4913287;28;103261;-61
2021/09/20 01:43:22;;;;;;;6.87;6.27;;;;;;;13.97;93.41;98699.94;4896261;28;103211;-61
2021/09/20 01:45:50;;;;;;;6.43;5.83;;;;;;;14.00;93.70;98699.69;4914609;28;102648;-61
2021/09/20 01:48:18;;;;;;;6.80;6.17;;;;;;;14.03;93.23;98708.22;4915501;28;102679;-68
2021/09/20 01:50:47;;;;;;;6.10;5.60;;;;;;;14.20;92.24;98702.31;4893613;28;104015;-68
2021/09/20 01:53:16;;;;;;;7.23;6.50;;;;;;;14.02;92.81;98698.56;4916855;28;103210;-68
2021/09/20 01:55:44;;;;;;;6.93;5.87;;;;;;;13.90;94.25;98707.59;4914055;28;102696;-68
2021/09/20 01:58:14;;;;;;;7.43;6.80;;;;;;;13.80;95.23;98709.34;4915415;28;103962;-68
2021/09/20 02:00:45;;;;;;;8.07;7.27;;;;;;;13.66;95.83;98707.88;4916003;28;103434;-68
2021/09/20 02:03:14;;;;;;;6.43;5.93;;;;;;;13.76;95.84;98702.59;4908145;28;103328;-68
2021/09/20 02:05:43;;;;;;;6.63;6.03;;;;;;;13.92;94.96;98705.66;4928023;28;103075;-68
2021/09/20 02:08:11;;;;;;;5.80;5.30;;;;;;;14.17;92.42;98697.25;4911980;28;102817;-61
2021/09/20 02:10:39;;;;;;;4.90;4.33;;;;;;;14.25;91.65;98697.41;4896449;28;104110;-61
2021/09/20 02:13:07;;;;;;;5.00;4.50;;;;;;;14.34;91.34;98699.28;4924279;28;103226;-61
2021/09/20 02:15:37;;;;;;;5.60;5.10;;;;;;;14.46;90.60;98703.53;4899559;28;102780;-61
2021/09/20 02:18:05;;;;;;;5.10;4.60;;;;;;;14.50;90.19;98707.63;4909637;28;103848;-62
2021/09/20 02:20:33;;;;;;;5.73;4.90;;;;;;;14.41;90.32;98702.25;4917659;28;103492;-68
2021/09/20 02:23:01;;;;;;;4.83;4.43;;;;;;;14.26;91.75;98696.44;4891319;28;103392;-62
2021/09/20 02:25:29;;;;;;;7.27;6.57;;;;;;;14.13;92.27;98702.94;4916109;28;102739;-61
2021/09/20 02:27:57;;;;;;;6.17;5.63;;;;;;;14.16;92.76;98703.53;4935239;28;104030;-68
2021/09/20 02:30:26;;;;;;;5.80;5.30;;;;;;;14.17;92.64;98702.56;4935538;28;103424;-68
2021/09/20 02:32:55;;;;;;;6.43;5.43;;;;;;;14.19;92.14;98703.28;4918788;28;103291;-68
2021/09/20 02:35:24;;;;;;;7.10;5.93;;;;;;;14.26;91.43;98709.72;4933568;28;102779;-62
2021/09/20 02:37:52;;;;;;;4.83;4.43;;;;;;;14.31;91.45;98704.88;4933290;28;102724;-61
2021/09/20 02:40:20;;;;;;;5.47;4.97;;;;;;;14.45;90.26;98701.88;4926032;28;103419;-61
2021/09/20 02:42:48;;;;;;;4.27;3.97;;;;;;;14.55;89.89;98703.69;4925325;28;103214;-61
2021/09/20 02:45:17;;;;;;;5.77;5.27;;;;;;;14.55;89.81;98701.03;4936277;28;102721;-60
2021/09/20 02:47:46;;;;;;;4.40;4.00;;;;;;;14.59;89.96;98708.63;4935084;28;102668;-62
2021/09/20 02:50:15;;;;;;;5.47;4.97;;;;;;;14.58;89.76;98700.78;4936886;28;103287;-61
2021/09/20 02:52:44;;;;;;;4.63;4.23;;;;;;;14.55;90.07;98701.03;4935317;28;103216;-61
2021/09/20 02:55:12;;;;;;;5.10;4.70;;;;;;;14.50;90.44;98699.66;4935828;28;102679;-61
2021/09/20 02:57:41;;;;;;;4.97;4.57;;;;;;;14.46;90.90;98694.72;4929335;28;102777;-61
2021/09/20 03:00:11;;;;;;;6.90;6.30;;;;;;;14.42;90.14;98696.81;4928479;28;103148;-61
2021/09/20 03:02:39;;;;;;;6.63;6.13;;;;;;;14.46;90.34;98695.56;4921858;28;102685;-61
2021/09/20 03:05:09;;;;;;;5.97;5.47;;;;;;;14.54;89.84;98696.72;4934993;28;102695;-61
2021/09/20 03:07:38;;;;;;;6.70;6.10;;;;;;;14.54;89.81;98694.06;4936977;28;104020;-60
2021/09/20 03:10:08;;;;;;;5.43;4.93;;;;;;;14.51;90.04;98696.00;4933825;28;103332;-61
2021/09/20 03:12:37;;;;;;;4.27;3.90;;;;;;;14.50;90.26;98694.31;4933366;28;103144;-61
2021/09/20 03:15:05;;;;;;;3.83;3.53;;;;;;;14.58;89.60;98695.44;4935849;28;102669;-60
2021/09/20 03:17:34;;;;;;;4.90;4.50;;;;;;;14.59;89.79;98697.16;4931242;28;102886;-60
2021/09/20 03:20:03;;;;;;;6.47;5.90;;;;;;;14.54;89.52;98705.50;4935710;28;103249;-60
2021/09/20 03:22:31;;;;;;;5.20;4.80;;;;;;;14.51;89.75;98701.31;4905021;28;103269;-60
2021/09/20 03:25:02;;;;;;;6.70;5.50;;;;;;;14.55;89.44;98703.69;4920992;28;103759;-60
2021/09/20 03:27:30;;;;;;;6.53;5.93;;;;;;;14.48;89.53;98703.41;4926533;28;103073;-60
2021/09/20 03:29:58;;;;;;;5.33;4.67;;;;;;;14.57;89.30;98705.25;4927460;28;104254;-60
2021/09/20 03:32:27;;;;;;;5.40;5.00;;;;;;;14.62;88.86;98700.38;4925973;28;103319;-60
2021/09/20 03:34:55;;;;;;;7.20;6.50;;;;;;;13.85;93.35;98699.16;4917993;28;102853;-63
2021/09/20 03:37:23;;;;;;;4.93;4.43;;;;;;;14.02;93.78;98703.88;4927619;28;105385;-66
2021/09/20 03:39:51;;;;;;;5.53;5.03;;;;;;;14.09;92.68;98704.19;4918038;28;103980;-67
2021/09/20 03:42:21;;;;;;;7.63;6.93;;;;;;;13.77;94.40;98710.47;4905281;28;103159;-66
2021/09/20 03:44:49;;;;;;;7.03;6.20;;;;;;;13.68;95.89;98708.56;4912963;28;102743;-62
2021/09/20 03:47:17;;;;;;;6.53;5.30;;;;;;;13.93;94.15;98704.66;4929087;28;103093;-61
2021/09/20 03:49:45;;;;;;;4.93;4.53;;;;;;;14.10;92.81;98706.72;4927903;28;103245;-61
2021/09/20 03:52:13;;;;;;;4.73;4.33;;;;;;;14.29;91.00;98706.78;4926006;28;102628;-61
2021/09/20 03:54:41;;;;;;;5.20;4.70;;;;;;;14.35;90.56;98708.94;4928029;28;102640;-61
2021/09/20 03:57:09;;;;;;;4.80;4.40;;;;;;;14.33;91.28;98712.72;4927132;28;102788;-62
2021/09/20 03:59:39;;;;;;;5.77;5.27;;;;;;;14.33;91.16;98708.25;4926497;28;103247;-69
2021/09/20 04:02:07;;;;;;;6.77;6.23;;;;;;;14.12;92.78;98715.38;4904847;28;103215;-66
2021/09/20 04:04:35;;;;;;;6.10;5.60;;;;;;;14.15;92.81;98715.13;4922692;28;102729;-65
2021/09/20 04:07:05;;;;;;;7.93;7.13;;;;;;;13.65;94.94;98715.94;4921387;28;102646;-66
2021/09/20 04:09:33;;;;;;;7.40;6.70;;;;;;;13.57;97.27;98716.59;4922667;28;103236;-68
2021/09/20 04:12:02;;;;;;;5.57;5.10;;;;;;;13.88;95.51;98713.03;4932395;28;103004;-68
2021/09/20 04:14:30;;;;;;;5.57;5.07;;;;;;;14.07;93.74;98714.09;4932881;28;102676;-66
2021/09/20 04:16:59;;;;;;;6.87;6.27;;;;;;;14.18;92.75;98714.84;4934320;28;103045;-65
2021/09/20 04:19:27;;;;;;;4.73;4.33;;;;;;;14.25;92.65;98716.03;4931039;28;103260;-67
2021/09/20 04:21:55;;;;;;;7.27;6.63;;;;;;;14.15;92.77;98720.44;4933330;28;103887;-68
2021/09/20 04:24:23;;;;;;;5.93;5.43;;;;;;;14.13;93.79;98722.38;4932237;28;103015;-68
2021/09/20 04:26:51;;;;;;;5.23;4.83;;;;;;;14.24;92.75;98714.34;4922868;28;104071;-67
2021/09/20 04:29:19;;;;;;;6.30;5.80;;;;;;;14.30;92.16;98711.16;4925100;28;103250;-68
2021/09/20 04:31:47;;;;;;;4.40;4.00;;;;;;;14.43;92.01;98710.94;4919265;28;103277;-68
2021/09/20 04:34:17;;;;;;;6.30;5.70;;;;;;;14.42;91.82;98718.09;4916986;28;102740;-69
2021/09/20 04:36:48;;;;;;;8.20;6.43;;;;;;;14.25;92.06;98726.66;4914330;28;104988;-69
2021/09/20 04:39:16;;;;;;;7.50;6.77;;;;;;;13.79;95.43;98728.91;4895181;28;103339;-70
2021/09/20 04:41:44;;;;;;;7.23;6.53;;;;;;;13.79;95.79;98726.25;4908229;28;103284;-69
2021/09/20 04:44:13;;;;;;;7.20;6.50;;;;;;;14.04;93.83;98727.63;4897849;28;102804;-69
2021/09/20 04:46:41;;;;;;;9.07;7.17;;;;;;;14.00;93.75;98734.22;4902996;28;102808;-67
2021/09/20 04:49:09;;;;;;;8.00;7.30;;;;;;;13.80;95.62;98730.59;4904354;28;104110;-69
2021/09/20 04:51:39;;;;;;;8.13;7.33;;;;;;;13.64;96.97;98746.13;4894064;28;103027;-69
2021/09/20 04:54:07;;;;;;;7.23;6.40;;;;;;;13.84;95.72;98742.63;4909673;28;103809;-68
2021/09/20 04:56:35;;;;;;;7.57;6.37;;;;;;;13.93;95.04;98741.84;4901022;28;102972;-69
2021/09/20 04:59:04;;;;;;;8.73;6.90;;;;;;;13.97;94.89;98743.28;4909105;28;102985;-68
2021/09/20 05:01:32;;;;;;;6.20;5.40;;;;;;;14.10;94.54;98743.91;4928684;28;103337;-68
2021/09/20 05:04:00;;;;;;;7.40;6.80;;;;;;;14.12;93.24;98749.91;4931661;28;102970;-68
2021/09/20 05:06:29;;;;;;;6.30;5.70;;;;;;;14.10;94.04;98749.22;4926561;28;102747;-64
2021/09/20 05:08:58;;;;;;;6.80;6.17;;;;;;;14.23;93.20;98752.50;4910556;28;103400;-68
2021/09/20 05:11:40;;;;;;;8.43;7.63;;;;;;;14.05;93.25;98759.41;4922592;28;103194;-70
2021/09/20 05:14:11;;;;;;;8.57;5.80;;;;;;;14.05;94.41;98753.25;4925387;28;102676;-67
2021/09/20 05:16:39;;;;;;;7.73;6.93;;;;;;;13.94;94.95;98754.16;4925733;28;103190;-68
2021/09/20 05:19:08;;;;;;;7.40;6.70;;;;;;;14.05;94.12;98755.91;4914405;28;103456;-63
2021/09/20 05:21:36;;;;;;;8.23;7.23;;;;;;;13.85;94.72;98758.44;4901397;28;103156;-64
2021/09/20 05:24:06;;;;;;;7.03;6.33;;;;;;;13.91;95.63;98757.06;4925256;28;103238;-65
2021/09/20 05:26:34;;;;;;;7.87;6.80;;;;;;;13.91;95.28;98759.72;4924749;28;102748;-69
2021/09/20 05:29:03;;;;;;;6.80;6.20;;;;;;;13.91;95.85;98757.94;4917595;28;104036;-64
2021/09/20 05:31:36;;;;;;;7.30;6.57;;;;;;;14.04;94.81;98755.06;4922539;28;103234;-64
2021/09/20 05:34:04;;;;;;;7.70;6.80;;;;;;;14.18;93.64;98756.53;4919950;28;103241;-63
2021/09/20 05:36:33;;;;;;;7.20;6.60;;;;;;;13.94;94.87;98767.44;4920461;28;103892;-63
2021/09/20 05:39:01;;;;;;;6.53;5.93;;;;;;;14.08;94.86;98775.09;4932716;28;103353;-63
2021/09/20 05:41:30;;;;;;;6.07;5.53;;;;;;;14.31;93.84;98763.34;4928917;28;103369;-63
2021/09/20 05:43:59;;;;;;;8.83;7.00;;;;;;;14.24;94.23;98767.47;4929112;28;103676;-68
2021/09/20 05:46:27;;;;;;;6.27;5.77;;;;;;;14.31;94.56;98776.63;4937221;28;102777;-63
2021/09/20 05:48:55;;;;;;;6.40;5.80;;;;;;;14.31;94.27;98779.28;4930930;28;104004;-65
2021/09/20 05:51:24;;;;;;;4.10;3.80;;;;;;;14.52;93.03;98776.59;4939246;28;103248;-70
2021/09/20 05:53:52;;;;;;;7.07;6.27;;;;;;;14.62;92.41;98776.63;4922539;28;102643;-69
2021/09/20 05:56:20;;;;;;;5.67;5.17;;;;;;;14.42;93.61;98781.88;4941972;28;102663;-69
2021/09/20 05:58:50;;;;;;;7.13;6.50;;;;;;;14.59;92.90;98776.91;4931884;28;103268;-70
2021/09/20 06:01:18;;;;;;;5.20;4.80;;;;;;;14.74;91.85;98781.72;4921302;28;103392;-70
2021/09/20 06:03:47;;;;;;;6.30;5.80;;;;;;;14.76;91.90;98789.56;4935087;28;102573;-65
2021/09/20 06:06:15;;;;;;;7.33;6.50;;;;;;;14.54;92.91;98782.59;4939602;28;102739;-65
2021/09/20 06:08:43;;;;;;;5.70;5.20;;;;;;;14.72;92.19;98789.00;4939773;28;103275;-65
2021/09/20 06:11:12;;;;;;;8.23;7.53;;;;;;;14.38;92.67;98793.72;4921585;28;102663;-66
2021/09/20 06:13:40;;;;;;;8.57;7.63;;;;;;;14.28;94.53;98794.63;4928586;28;103324;-65
2021/09/20 06:16:10;;;;;;;7.77;5.97;;;;;;;14.29;95.48;98797.16;4929617;28;104479;-64
2021/09/20 06:18:39;;;;;;;8.33;7.63;;;;;;;14.08;95.24;98799.00;4939476;28;104416;-64
2021/09/20 06:21:07;;;;;;;8.77;7.40;;;;;;;14.07;94.87;98799.94;4929679;28;103192;-64
2021/09/20 06:23:35;;;;;;;8.10;7.30;;;;;;;14.16;96.05;98793.00;4937575;28;102802;-64
2021/09/20 06:26:03;;;;;;;8.63;7.83;;;;;;;14.10;96.50;98796.19;4933486;28;104275;-64
2021/09/20 06:28:32;;;;;;;10.67;7.83;;;;;;;14.12;96.41;98796.94;4934971;28;104075;-64
2021/09/20 06:31:02;;;;;;;9.90;7.60;;;;;;;14.31;96.08;98789.91;4937097;28;102682;-64
2021/09/20 06:33:33;;;;;;;9.47;7.90;;;;;;;14.22;95.90;98790.69;4920355;28;102721;-64
2021/09/20 06:36:02;;;;;;;9.13;8.20;;;;;;;14.00;98.42;98800.59;4920922;28;103048;-64
2021/09/20 06:38:30;;;;;;;8.47;7.57;;;;;;;14.00;98.40;98806.78;4928150;28;103305;-64
2021/09/20 06:40:59;;;;;;;8.10;6.90;;;;;;;14.21;97.38;98804.09;4929086;28;103318;-64
2021/09/20 06:43:27;;;;;;;7.73;7.13;;;;;;;14.19;96.56;98801.56;4936642;28;102752;-64
2021/09/20 06:45:56;;;;;;;9.10;8.00;;;;;;;14.28;95.60;98800.78;4935254;28;104009;-64
2021/09/20 06:48:24;;;;;;;9.00;8.03;;;;;;;14.06;96.67;98805.41;4937464;28;103449;-64
2021/09/20 06:50:57;;;;;;;8.40;7.40;;;;;;;14.37;95.80;98805.34;4918983;28;103245;-65
2021/09/20 06:53:26;;;;;;;9.33;7.53;;;;;;;14.22;97.57;98800.47;4936040;28;102652;-65
2021/09/20 06:55:54;;;;;;;9.27;8.33;;;;;;;14.26;96.74;98793.94;4916294;28;102855;-65
2021/09/20 06:58:22;;;;;;;6.63;5.53;;;;;;;14.56;95.33;98793.97;4939159;28;103260;-69
2021/09/20 07:00:50;;;;;;;7.90;7.20;;;;;;;14.82;93.44;98794.34;4919699;28;102689;-70
2021/09/20 07:03:19;;;;;;;6.70;6.10;;;;;;;15.04;92.94;98800.28;4936590;28;103247;-70
2021/09/20 07:05:48;;;;;;;5.57;5.07;;;;;;;15.17;91.80;98796.53;4940329;28;102801;-69
2021/09/20 07:08:17;;;;;;;6.70;6.20;;;;;;;15.32;89.95;98798.66;4932678;28;103488;-69
2021/09/20 07:10:46;;;;;;;5.97;5.47;;;;;;;15.48;89.11;98793.66;4939335;28;103747;-64
2021/09/20 07:13:14;;;;;;;6.00;5.43;;;;;;;15.59;88.26;98795.34;4936638;28;103478;-63
2021/09/20 07:15:42;;;;;;;6.63;6.03;;;;;;;15.54;88.44;98803.75;4935437;28;102678;-64
2021/09/20 07:18:11;;;;;;;7.10;6.40;;;;;;;15.52;87.84;98805.69;4934967;28;103357;-64
2021/09/20 07:20:39;;;;;;;6.57;5.87;;;;;;;15.64;87.38;98804.59;4934685;28;103234;-64
2021/09/20 07:23:07;;;;;;;6.90;6.07;;;;;;;15.33;89.89;98795.00;4935613;28;103024;-67
2021/09/20 07:25:37;;;;;;;6.17;5.67;;;;;;;15.29;90.35;98804.25;4918275;28;104083;-64
2021/09/20 07:28:06;;;;;;;8.63;6.57;;;;;;;15.60;87.93;98802.38;4928404;28;103273;-64
2021/09/20 07:30:35;;;;;;;6.83;6.23;;;;;;;15.83;87.19;98803.75;4933181;28;103231;-64
2021/09/20 07:33:03;;;;;;;6.23;5.73;;;;;;;16.05;86.56;98807.94;4932656;28;102682;-64
2021/09/20 07:35:32;;;;;;;7.00;6.23;;;;;;;15.70;88.41;98807.69;4942117;28;102671;-65
2021/09/20 07:38:00;;;;;;;6.67;5.20;;;;;;;15.97;87.19;98811.31;4938067;28;103347;-64
2021/09/20 07:40:29;;;;;;;9.83;7.60;;;;;;;15.52;87.79;98811.03;4929625;28;103294;-65
2021/09/20 07:43:00;;;;;;;8.90;8.00;;;;;;;15.50;88.31;98817.47;4939112;28;102606;-65
2021/09/20 07:45:28;;;;;;;9.95;6.80;;;;;;;15.86;87.60;98815.97;4941282;28;102703;-66
2021/09/20 07:47:57;;;;;;;7.75;6.97;;;;;;;16.05;85.63;98818.59;4933156;28;103296;-66
2021/09/20 07:50:26;;;;;;;6.93;6.32;;;;;;;16.20;85.00;98822.50;4926641;28;103493;-65
2021/09/20 07:52:55;;;;;;;8.68;7.82;;;;;;;16.27;84.37;98820.94;4941382;28;102697;-65
2021/09/20 07:55:23;;;;;;;9.80;7.60;;;;;;;16.30;85.20;98828.66;4944940;28;103940;-65
2021/09/20 07:57:53;;;;;;;9.73;7.75;;;;;;;16.47;84.31;98822.59;4943420;28;103315;-70
2021/09/20 08:00:23;;;;;;;11.32;10.13;;;;;;;16.18;83.80;98829.81;4943562;28;103209;-70
2021/09/20 08:02:51;;;;;;;16.00;10.50;;;;;;;16.23;84.17;98825.72;4934717;28;102978;-70
2021/09/20 08:05:19;;;;;;;15.95;10.40;;;;;;;16.39;83.72;98833.16;4939800;28;102643;-70
2021/09/20 08:07:48;;;;;;;26.77;14.20;;;;;;;16.20;83.70;98833.16;4935999;28;103275;-70
2021/09/20 08:10:17;;;;;;;16.13;9.60;;;;;;;16.25;84.81;98841.59;4945857;28;103320;-70
2021/09/20 08:12:45;;;;;;;12.00;8.65;;;;;;;16.42;83.84;98840.00;4932333;28;102662;-66
2021/09/20 08:15:13;;;;;;;8.40;6.97;;;;;;;16.47;84.16;98841.25;4942668;28;102644;-65
2021/09/20 08:17:43;;;;;;;8.75;7.95;;;;;;;16.37;85.50;98839.56;4924702;28;103320;-66
2021/09/20 08:20:13;;;;;;;10.02;9.13;;;;;;;15.86;85.92;98839.94;4944335;28;103370;-66
2021/09/20 08:22:49;;;;;;;9.45;8.55;;;;;;;16.09;87.43;98844.81;4943010;28;102588;-66
2021/09/20 08:25:18;;;;;;;8.38;7.63;;;;;;;16.55;84.43;98838.75;4943773;28;103206;-66
2021/09/20 08:27:47;;;;;;;6.85;6.25;;;;;;;16.95;82.73;98840.28;4940091;28;103129;-66
2021/09/20 08:30:16;;;;;;;9.90;8.98;;;;;;;16.31;84.73;98848.16;4918028;28;102716;-66
2021/09/20 08:32:45;;;;;;;10.55;9.43;;;;;;;15.82;87.10;98849.19;4940781;28;102705;-66
2021/09/20 08:35:14;;;;;;;11.73;9.23;;;;;;;16.43;83.69;98845.19;4941712;28;103982;-66
2021/09/20 08:37:42;;;;;;;10.07;7.82;;;;;;;16.73;83.81;98844.97;4921301;28;103291;-66
2021/09/20 08:40:12;;;;;;;10.60;7.43;;;;;;;17.05;82.54;98841.06;4942369;28;103244;-70
2021/09/20 08:42:41;;;;;;;40.63;16.40;;;;;;;17.24;81.63;98846.28;4943641;28;102665;-70
2021/09/20 08:45:13;;;;;;;16.20;10.02;;;;;;;17.20;80.86;98850.25;4938257;28;102684;-70
2021/09/20 08:47:42;;;;;;;8.77;7.88;;;;;;;17.20;81.30;98860.94;4934755;28;103255;-66
2021/09/20 08:50:16;;;;;;;8.10;7.30;;;;;;;17.58;80.11;98855.41;4932375;28;103037;-70
2021/09/20 08:52:44;;;;;;;9.60;8.00;;;;;;;17.40;79.88;98858.00;4919095;28;102805;-66
2021/09/20 08:55:13;;;;;;;9.48;8.55;;;;;;;17.50;80.07;98857.94;4935817;28;102774;-66
2021/09/20 08:57:42;;;;;;;9.55;8.02;;;;;;;17.65;79.79;98866.31;4936036;28;104556;-66
2021/09/20 09:00:12;;;;;;;8.52;7.57;;;;;;;17.33;81.55;98861.44;4934810;28;103087;-66
2021/09/20 09:02:41;;;;;;;10.00;9.10;;;;;;;17.54;79.73;98859.38;4934683;28;102641;-66
2021/09/20 09:05:24;;;;;;;11.30;8.50;;;;;;;17.69;79.24;98860.53;4938883;28;104204;-66
2021/09/20 09:07:56;;;;;;;13.82;10.90;;;;;;;17.31;80.09;98863.41;4933325;28;103327;-66
2021/09/20 09:10:26;;;;;;;9.57;8.68;;;;;;;17.72;79.55;98867.38;4935808;28;103322;-65
2021/09/20 09:12:55;;;;;;;12.05;10.80;;;;;;;17.73;78.99;98869.91;4936855;28;102718;-66
2021/09/20 09:15:25;;;;;;;9.60;8.70;;;;;;;17.68;79.89;98866.88;4935790;28;102786;-66
2021/09/20 09:17:56;;;;;;;14.27;12.82;;;;;;;17.02;81.45;98868.03;4934596;28;103241;-65
2021/09/20 09:20:28;;;;;;;11.77;10.68;;;;;;;17.38;81.03;98867.16;4933760;28;102725;-66
2021/09/20 09:22:58;;;;;;;14.27;12.70;;;;;;;16.81;83.24;98871.75;4936938;28;102714;-66
2021/09/20 09:25:29;;;;;;;10.23;9.23;;;;;;;17.46;81.26;98877.91;4931131;28;104017;-66
2021/09/20 09:28:03;;;;;;;12.05;10.90;;;;;;;17.48;80.58;98875.97;4900737;28;103330;-66
2021/09/20 09:30:40;;;;;;;11.93;10.82;;;;;;;17.20;82.63;98871.63;4900485;28;102766;-66
2021/09/20 09:33:10;;;;;;;10.05;9.05;;;;;;;16.84;84.42;98883.16;4917316;28;102719;-66
2021/09/20 09:35:44;;;;;;;12.32;10.75;;;;;;;17.01;82.82;98887.72;4918098;28;103949;-66
2021/09/20 09:38:13;;;;;;;14.73;11.23;;;;;;;16.79;83.08;98887.09;4916840;28;103308;-66
2021/09/20 09:40:52;;;;;;;11.98;10.85;;;;;;;17.19;82.43;98885.94;4913783;28;103268;-66
2021/09/20 09:43:27;;;;;;;12.82;11.60;;;;;;;16.54;84.96;98885.06;4901390;28;102722;-66
2021/09/20 09:45:56;;;;;;;13.75;12.35;;;;;;;16.25;85.84;98889.56;4914670;28;103993;-66
2021/09/20 09:48:27;;;;;;;14.57;13.05;;;;;;;16.47;84.53;98888.41;4911133;28;104071;-70
2021/09/20 09:50:58;;;;;;;14.65;12.18;;;;;;;16.12;87.17;98887.19;4911689;28;103190;-70
2021/09/20 09:53:32;;;;;;;14.90;11.77;;;;;;;15.89;88.02;98892.91;4915234;28;102607;-70
2021/09/20 09:56:17;;;;;;;13.23;11.93;;;;;;;15.94;86.67;98888.88;4910502;28;103939;-71
2021/09/20 09:58:58;;;;;;;11.77;9.52;;;;;;;16.58;85.89;98886.47;4909387;28;103255;-71
2021/09/20 10:01:30;;;;;;;16.25;11.90;;;;;;;16.62;83.04;98893.16;4902094;28;103431;-69
2021/09/20 10:04:12;;;;;;;11.80;10.60;;;;;;;16.83;83.40;98894.81;4915449;28;102711;-69
2021/09/20 10:06:54;;;;;;;11.40;10.20;;;;;;;16.69;84.54;98891.63;4910354;28;102802;-70
2021/09/20 10:09:24;;;;;;;12.27;10.15;;;;;;;16.68;84.11;98892.59;4912677;28;103984;-69
2021/09/20 10:11:54;;;;;;;13.70;12.40;;;;;;;16.71;83.34;98889.66;4922110;28;103259;-70
2021/09/20 10:14:24;;;;;;;13.68;12.23;;;;;;;16.21;86.02;98893.50;4916312;28;102751;-65
2021/09/20 10:16:55;;;;;;;11.90;10.70;;;;;;;16.56;83.89;98891.06;4910435;28;102675;-65
2021/09/20 10:19:24;;;;;;;14.70;13.20;;;;;;;16.17;84.94;98897.41;4906492;28;102748;-65
2021/09/20 10:21:55;;;;;;;15.73;13.85;;;;;;;16.00;87.01;98895.47;4904963;28;103157;-65
2021/09/20 10:24:23;;;;;;;15.02;12.40;;;;;;;16.24;86.24;98894.06;4914448;28;103861;-69
2021/09/20 10:26:53;;;;;;;11.70;10.57;;;;;;;16.68;84.49;98892.59;4937039;28;104137;-69
2021/09/20 10:29:23;;;;;;;15.18;13.55;;;;;;;16.22;85.44;98895.19;4937932;28;102668;-69
2021/09/20 10:31:52;;;;;;;14.98;13.48;;;;;;;15.90;86.77;98892.78;4922368;28;103597;-70
2021/09/20 10:34:28;;;;;;;13.82;12.52;;;;;;;16.21;87.60;98893.50;4938584;28;102778;-70
2021/09/20 10:37:12;;;;;;;13.88;12.57;;;;;;;16.67;84.14;98890.91;4938263;28;102692;-69
2021/09/20 10:39:56;;;;;;;15.27;13.20;;;;;;;16.12;86.57;98894.31;4935157;28;103359;-68
2021/09/20 10:42:57;;;;;;;15.68;13.70;;;;;;;16.27;87.42;98886.75;4936202;28;103117;-69
2021/09/20 10:45:51;;;;;;;15.52;13.85;;;;;;;16.13;86.07;98890.69;4917672;28;102721;-64
2021/09/20 10:48:47;;;;;;;13.50;12.20;;;;;;;16.50;85.94;98888.97;4919898;28;104382;-64
2021/09/20 10:51:22;;;;;;;11.52;10.43;;;;;;;17.18;83.52;98889.59;4936616;28;103323;-68
2021/09/20 10:54:17;;;;;;;16.00;14.40;;;;;;;16.59;84.27;98890.78;4944903;28;103195;-70
2021/09/20 10:56:47;;;;;;;15.52;14.02;;;;;;;16.29;86.34;98890.94;4937229;28;102650;-70
2021/09/20 10:59:27;;;;;;;13.05;11.30;;;;;;;16.64;84.78;98891.22;4938742;28;102658;-70
2021/09/20 11:02:06;;;;;;;15.60;13.30;;;;;;;16.23;86.00;98886.19;4936851;28;104121;-70
2021/09/20 11:04:39;;;;;;;16.10;13.68;;;;;;;16.36;85.81;98886.75;4938800;28;103238;-70
2021/09/20 11:07:19;;;;;;;14.10;12.60;;;;;;;16.39;85.01;98881.13;4935785;28;102705;-69
2021/09/20 11:10:10;;;;;;;12.07;10.80;;;;;;;16.96;84.32;98882.81;4936028;28;102868;-65
2021/09/20 11:12:59;;;;;;;14.98;13.48;;;;;;;17.18;82.69;98889.59;4936627;28;104211;-70
2021/09/20 11:15:28;;;;;;;9.40;8.48;;;;;;;17.64;81.39;98886.00;4933983;28;103253;-70
2021/09/20 11:17:56;;;;;;;14.25;12.85;;;;;;;16.57;84.11;98884.75;4934083;28;102625;-70
2021/09/20 11:20:35;;;;;;;15.52;13.93;;;;;;;16.42;85.27;98891.50;4938010;28;102649;-71
2021/09/20 11:23:25;;;;;;;14.55;13.13;;;;;;;16.63;83.99;98892.19;4931117;28;103703;-71
2021/09/20 11:26:11;;;;;;;12.43;10.63;;;;;;;17.55;82.07;98889.56;4932759;28;103253;-66
2021/09/20 11:28:42;;;;;;;14.70;11.82;;;;;;;17.55;80.36;98886.91;4935665;28;102564;-66
2021/09/20 11:31:11;;;;;;;14.70;12.90;;;;;;;16.88;82.53;98895.19;4935403;28;102766;-66
2021/09/20 11:33:42;;;;;;;11.82;10.73;;;;;;;17.11;83.76;98888.53;4918500;28;103266;-65
2021/09/20 11:36:22;;;;;;;10.73;9.73;;;;;;;17.10;83.52;98892.16;4936483;28;103121;-66